sensor_id;sensor_type;location;lat;lon;timestamp;temperature;humidity
46309;DHT22;32037;50.820;6.494;2023-10-19T00:00:50;13.30;72.10
46309;DHT22;32037;50.820;6.494;2023-10-19T00:03:23;13.30;72.50
46309;DHT22;32037;50.820;6.494;2023-10-19T00:05:51;13.30;71.60
46309;DHT22;32037;50.820;6.494;2023-10-19T00:08:19;13.30;72.20
46309;DHT22;32037;50.820;6.494;2023-10-19T00:10:50;13.30;70.60
46309;DHT22;32037;50.820;6.494;2023-10-19T00:13:29;13.40;72.90
46309;DHT22;32037;50.820;6.494;2023-10-19T00:15:57;13.40;72.10
46309;DHT22;32037;50.820;6.494;2023-10-19T00:18:26;13.30;73.50
46309;DHT22;32037;50.820;6.494;2023-10-19T00:20:54;13.30;74.80
46309;DHT22;32037;50.820;6.494;2023-10-19T00:23:26;13.30;75.50
46309;DHT22;32037;50.820;6.494;2023-10-19T00:26:01;13.30;76.00
46309;DHT22;32037;50.820;6.494;2023-10-19T00:28:37;13.30;75.70
46309;DHT22;32037;50.820;6.494;2023-10-19T00:31:06;13.30;73.60
46309;DHT22;32037;50.820;6.494;2023-10-19T00:33:36;13.30;75.80
46309;DHT22;32037;50.820;6.494;2023-10-19T00:36:07;13.30;76.20
46309;DHT22;32037;50.820;6.494;2023-10-19T00:38:36;13.30;75.90
46309;DHT22;32037;50.820;6.494;2023-10-19T00:41:09;13.30;75.60
46309;DHT22;32037;50.820;6.494;2023-10-19T00:43:46;13.30;76.30
46309;DHT22;32037;50.820;6.494;2023-10-19T00:46:17;13.30;75.70
46309;DHT22;32037;50.820;6.494;2023-10-19T00:48:54;13.30;77.00
46309;DHT22;32037;50.820;6.494;2023-10-19T00:51:27;13.30;76.10
46309;DHT22;32037;50.820;6.494;2023-10-19T00:54:10;13.30;75.90
46309;DHT22;32037;50.820;6.494;2023-10-19T00:56:45;13.30;77.70
46309;DHT22;32037;50.820;6.494;2023-10-19T00:59:18;13.30;75.80
46309;DHT22;32037;50.820;6.494;2023-10-19T01:01:50;13.30;73.60
46309;DHT22;32037;50.820;6.494;2023-10-19T01:04:22;13.30;72.20
46309;DHT22;32037;50.820;6.494;2023-10-19T01:06:52;13.30;74.60
46309;DHT22;32037;50.820;6.494;2023-10-19T01:09:32;13.40;73.60
46309;DHT22;32037;50.820;6.494;2023-10-19T01:12:05;13.40;71.30
46309;DHT22;32037;50.820;6.494;2023-10-19T01:15:04;13.40;71.10
46309;DHT22;32037;50.820;6.494;2023-10-19T01:17:36;13.40;72.30
46309;DHT22;32037;50.820;6.494;2023-10-19T01:20:08;13.40;72.50
46309;DHT22;32037;50.820;6.494;2023-10-19T01:22:51;13.40;70.50
46309;DHT22;32037;50.820;6.494;2023-10-19T01:25:42;13.40;70.90
46309;DHT22;32037;50.820;6.494;2023-10-19T01:28:13;13.40;70.40
46309;DHT22;32037;50.820;6.494;2023-10-19T01:30:44;13.40;71.40
46309;DHT22;32037;50.820;6.494;2023-10-19T01:33:19;13.40;70.70
46309;DHT22;32037;50.820;6.494;2023-10-19T01:35:47;13.40;71.20
46309;DHT22;32037;50.820;6.494;2023-10-19T01:38:35;13.40;72.30
46309;DHT22;32037;50.820;6.494;2023-10-19T01:41:04;13.40;71.00
46309;DHT22;32037;50.820;6.494;2023-10-19T01:43:34;13.40;72.30
46309;DHT22;32037;50.820;6.494;2023-10-19T01:46:07;13.40;71.60
46309;DHT22;32037;50.820;6.494;2023-10-19T01:48:39;13.40;72.40
46309;DHT22;32037;50.820;6.494;2023-10-19T01:51:09;13.40;70.80
46309;DHT22;32037;50.820;6.494;2023-10-19T01:53:39;13.40;70.40
46309;DHT22;32037;50.820;6.494;2023-10-19T01:56:10;13.40;73.50
46309;DHT22;32037;50.820;6.494;2023-10-19T01:58:37;13.40;72.60
46309;DHT22;32037;50.820;6.494;2023-10-19T02:01:07;13.40;71.60
46309;DHT22;32037;50.820;6.494;2023-10-19T02:03:36;13.40;71.50
46309;DHT22;32037;50.820;6.494;2023-10-19T02:06:09;13.40;70.30
46309;DHT22;32037;50.820;6.494;2023-10-19T02:08:49;13.40;71.60
46309;DHT22;32037;50.820;6.494;2023-10-19T02:11:22;13.40;71.40
46309;DHT22;32037;50.820;6.494;2023-10-19T02:13:51;13.40;70.60
46309;DHT22;32037;50.820;6.494;2023-10-19T02:16:20;13.40;71.00
46309;DHT22;32037;50.820;6.494;2023-10-19T02:18:50;13.40;72.20
46309;DHT22;32037;50.820;6.494;2023-10-19T02:21:19;13.40;70.40
46309;DHT22;32037;50.820;6.494;2023-10-19T02:23:51;13.40;72.40
46309;DHT22;32037;50.820;6.494;2023-10-19T02:26:19;13.40;70.20
46309;DHT22;32037;50.820;6.494;2023-10-19T02:28:49;13.40;70.40
46309;DHT22;32037;50.820;6.494;2023-10-19T02:31:18;13.40;70.40
46309;DHT22;32037;50.820;6.494;2023-10-19T02:33:49;13.40;72.70
46309;DHT22;32037;50.820;6.494;2023-10-19T02:36:19;13.40;70.90
46309;DHT22;32037;50.820;6.494;2023-10-19T02:38:47;13.40;71.50
46309;DHT22;32037;50.820;6.494;2023-10-19T02:41:20;13.40;71.70
46309;DHT22;32037;50.820;6.494;2023-10-19T02:43:48;13.40;69.70
46309;DHT22;32037;50.820;6.494;2023-10-19T02:46:28;13.40;71.30
46309;DHT22;32037;50.820;6.494;2023-10-19T02:48:55;13.40;70.50
46309;DHT22;32037;50.820;6.494;2023-10-19T02:51:24;13.40;72.00
46309;DHT22;32037;50.820;6.494;2023-10-19T02:53:52;13.40;70.20
46309;DHT22;32037;50.820;6.494;2023-10-19T02:56:22;13.40;71.00
46309;DHT22;32037;50.820;6.494;2023-10-19T02:58:50;13.40;71.30
46309;DHT22;32037;50.820;6.494;2023-10-19T03:01:20;13.40;71.60
46309;DHT22;32037;50.820;6.494;2023-10-19T03:03:52;13.40;71.60
46309;DHT22;32037;50.820;6.494;2023-10-19T03:06:22;13.40;71.20
46309;DHT22;32037;50.820;6.494;2023-10-19T03:08:49;13.40;70.70
46309;DHT22;32037;50.820;6.494;2023-10-19T03:11:26;13.40;71.00
46309;DHT22;32037;50.820;6.494;2023-10-19T03:13:54;13.40;71.70
46309;DHT22;32037;50.820;6.494;2023-10-19T03:16:24;13.40;72.60
46309;DHT22;32037;50.820;6.494;2023-10-19T03:18:54;13.40;72.30
46309;DHT22;32037;50.820;6.494;2023-10-19T03:21:22;13.40;72.30
46309;DHT22;32037;50.820;6.494;2023-10-19T03:23:53;13.40;70.80
46309;DHT22;32037;50.820;6.494;2023-10-19T03:26:23;13.40;73.80
46309;DHT22;32037;50.820;6.494;2023-10-19T03:28:58;13.40;74.70
46309;DHT22;32037;50.820;6.494;2023-10-19T03:31:30;13.40;72.20
46309;DHT22;32037;50.820;6.494;2023-10-19T03:34:00;13.40;73.80
46309;DHT22;32037;50.820;6.494;2023-10-19T03:36:32;13.40;72.20
46309;DHT22;32037;50.820;6.494;2023-10-19T03:39:00;13.40;70.60
46309;DHT22;32037;50.820;6.494;2023-10-19T03:41:41;13.40;71.20
46309;DHT22;32037;50.820;6.494;2023-10-19T03:44:12;13.40;72.10
46309;DHT22;32037;50.820;6.494;2023-10-19T03:46:46;13.40;70.90
46309;DHT22;32037;50.820;6.494;2023-10-19T03:49:28;13.40;70.50
46309;DHT22;32037;50.820;6.494;2023-10-19T03:52:06;13.40;72.00
46309;DHT22;32037;50.820;6.494;2023-10-19T03:54:48;13.40;71.10
46309;DHT22;32037;50.820;6.494;2023-10-19T03:57:18;13.40;70.40
46309;DHT22;32037;50.820;6.494;2023-10-19T03:59:53;13.40;71.70
46309;DHT22;32037;50.820;6.494;2023-10-19T04:02:25;13.40;72.10
46309;DHT22;32037;50.820;6.494;2023-10-19T04:04:57;13.40;71.70
46309;DHT22;32037;50.820;6.494;2023-10-19T04:07:25;13.40;71.30
46309;DHT22;32037;50.820;6.494;2023-10-19T04:09:55;13.40;71.30
46309;DHT22;32037;50.820;6.494;2023-10-19T04:12:37;13.40;71.30
46309;DHT22;32037;50.820;6.494;2023-10-19T04:15:10;13.40;71.80
46309;DHT22;32037;50.820;6.494;2023-10-19T04:17:41;13.40;71.00
46309;DHT22;32037;50.820;6.494;2023-10-19T04:20:10;13.50;71.80
46309;DHT22;32037;50.820;6.494;2023-10-19T04:22:55;13.40;72.20
46309;DHT22;32037;50.820;6.494;2023-10-19T04:25:25;13.40;73.40
46309;DHT22;32037;50.820;6.494;2023-10-19T04:27:54;13.40;73.30
46309;DHT22;32037;50.820;6.494;2023-10-19T04:30:25;13.40;74.30
46309;DHT22;32037;50.820;6.494;2023-10-19T04:32:54;13.40;75.20
46309;DHT22;32037;50.820;6.494;2023-10-19T04:35:25;13.40;74.00
46309;DHT22;32037;50.820;6.494;2023-10-19T04:37:57;13.40;75.20
46309;DHT22;32037;50.820;6.494;2023-10-19T04:40:27;13.40;74.60
46309;DHT22;32037;50.820;6.494;2023-10-19T04:42:55;13.40;74.10
46309;DHT22;32037;50.820;6.494;2023-10-19T04:45:25;13.40;74.00
46309;DHT22;32037;50.820;6.494;2023-10-19T04:47:53;13.40;75.30
46309;DHT22;32037;50.820;6.494;2023-10-19T04:50:22;13.40;74.20
46309;DHT22;32037;50.820;6.494;2023-10-19T04:52:50;13.40;74.80
46309;DHT22;32037;50.820;6.494;2023-10-19T04:55:18;13.40;75.20
46309;DHT22;32037;50.820;6.494;2023-10-19T04:57:47;13.40;75.40
46309;DHT22;32037;50.820;6.494;2023-10-19T05:00:17;13.40;76.70
46309;DHT22;32037;50.820;6.494;2023-10-19T05:02:49;13.40;75.00
46309;DHT22;32037;50.820;6.494;2023-10-19T05:05:19;13.40;73.60
46309;DHT22;32037;50.820;6.494;2023-10-19T05:07:47;13.40;73.20
46309;DHT22;32037;50.820;6.494;2023-10-19T05:10:16;13.40;74.00
46309;DHT22;32037;50.820;6.494;2023-10-19T05:12:44;13.40;72.10
46309;DHT22;32037;50.820;6.494;2023-10-19T05:15:12;13.40;73.00
46309;DHT22;32037;50.820;6.494;2023-10-19T05:17:42;13.40;73.50
46309;DHT22;32037;50.820;6.494;2023-10-19T05:20:12;13.40;72.30
46309;DHT22;32037;50.820;6.494;2023-10-19T05:22:40;13.40;71.90
46309;DHT22;32037;50.820;6.494;2023-10-19T05:25:08;13.40;72.90
46309;DHT22;32037;50.820;6.494;2023-10-19T05:27:37;13.40;72.10
46309;DHT22;32037;50.820;6.494;2023-10-19T05:30:06;13.40;72.20
46309;DHT22;32037;50.820;6.494;2023-10-19T05:32:37;13.40;71.20
46309;DHT22;32037;50.820;6.494;2023-10-19T05:35:06;13.40;70.80
46309;DHT22;32037;50.820;6.494;2023-10-19T05:37:35;13.40;71.50
46309;DHT22;32037;50.820;6.494;2023-10-19T05:40:04;13.40;70.50
46309;DHT22;32037;50.820;6.494;2023-10-19T05:42:39;13.40;70.30
46309;DHT22;32037;50.820;6.494;2023-10-19T05:45:08;13.40;71.30
46309;DHT22;32037;50.820;6.494;2023-10-19T05:47:40;13.40;71.00
46309;DHT22;32037;50.820;6.494;2023-10-19T05:50:09;13.40;70.20
46309;DHT22;32037;50.820;6.494;2023-10-19T05:52:42;13.40;70.80
46309;DHT22;32037;50.820;6.494;2023-10-19T05:55:10;13.40;71.00
46309;DHT22;32037;50.820;6.494;2023-10-19T05:57:39;13.50;72.00
46309;DHT22;32037;50.820;6.494;2023-10-19T06:00:09;13.40;71.70
46309;DHT22;32037;50.820;6.494;2023-10-19T06:02:42;13.40;71.80
46309;DHT22;32037;50.820;6.494;2023-10-19T06:05:13;13.50;71.00
46309;DHT22;32037;50.820;6.494;2023-10-19T06:07:44;13.40;73.00
46309;DHT22;32037;50.820;6.494;2023-10-19T06:10:17;13.50;73.70
46309;DHT22;32037;50.820;6.494;2023-10-19T06:12:46;13.40;73.80
46309;DHT22;32037;50.820;6.494;2023-10-19T06:15:16;13.40;72.50
46309;DHT22;32037;50.820;6.494;2023-10-19T06:17:44;13.40;71.40
46309;DHT22;32037;50.820;6.494;2023-10-19T06:20:14;13.40;72.00
46309;DHT22;32037;50.820;6.494;2023-10-19T06:22:53;13.40;71.90
46309;DHT22;32037;50.820;6.494;2023-10-19T06:25:24;13.40;71.60
46309;DHT22;32037;50.820;6.494;2023-10-19T06:27:53;13.40;71.00
46309;DHT22;32037;50.820;6.494;2023-10-19T06:30:24;13.40;71.40
46309;DHT22;32037;50.820;6.494;2023-10-19T06:32:55;13.40;70.10
46309;DHT22;32037;50.820;6.494;2023-10-19T06:35:24;13.50;70.10
46309;DHT22;32037;50.820;6.494;2023-10-19T06:37:54;13.40;70.10
46309;DHT22;32037;50.820;6.494;2023-10-19T06:40:23;13.50;70.60
46309;DHT22;32037;50.820;6.494;2023-10-19T06:42:55;13.50;70.50
46309;DHT22;32037;50.820;6.494;2023-10-19T06:45:25;13.40;71.00
46309;DHT22;32037;50.820;6.494;2023-10-19T06:47:53;13.50;71.30
46309;DHT22;32037;50.820;6.494;2023-10-19T06:50:23;13.40;72.80
46309;DHT22;32037;50.820;6.494;2023-10-19T06:52:53;13.50;72.40
46309;DHT22;32037;50.820;6.494;2023-10-19T06:55:22;13.50;72.40
46309;DHT22;32037;50.820;6.494;2023-10-19T06:57:53;13.50;72.30
46309;DHT22;32037;50.820;6.494;2023-10-19T07:00:24;13.50;70.80
46309;DHT22;32037;50.820;6.494;2023-10-19T07:02:55;13.50;71.10
46309;DHT22;32037;50.820;6.494;2023-10-19T07:05:23;13.50;72.60
46309;DHT22;32037;50.820;6.494;2023-10-19T07:07:54;13.40;72.60
46309;DHT22;32037;50.820;6.494;2023-10-19T07:10:23;13.50;71.30
46309;DHT22;32037;50.820;6.494;2023-10-19T07:12:53;13.50;70.50
46309;DHT22;32037;50.820;6.494;2023-10-19T07:15:22;13.50;73.30
46309;DHT22;32037;50.820;6.494;2023-10-19T07:17:53;13.50;72.60
46309;DHT22;32037;50.820;6.494;2023-10-19T07:20:22;13.40;71.20
46309;DHT22;32037;50.820;6.494;2023-10-19T07:22:57;13.50;70.70
46309;DHT22;32037;50.820;6.494;2023-10-19T07:25:27;13.40;70.30
46309;DHT22;32037;50.820;6.494;2023-10-19T07:27:56;13.50;73.70
46309;DHT22;32037;50.820;6.494;2023-10-19T07:30:27;13.40;73.70
46309;DHT22;32037;50.820;6.494;2023-10-19T07:32:55;13.50;71.40
46309;DHT22;32037;50.820;6.494;2023-10-19T07:35:26;13.50;73.00
46309;DHT22;32037;50.820;6.494;2023-10-19T07:37:56;13.50;71.70
46309;DHT22;32037;50.820;6.494;2023-10-19T07:40:24;13.50;71.60
46309;DHT22;32037;50.820;6.494;2023-10-19T07:42:53;13.50;72.40
46309;DHT22;32037;50.820;6.494;2023-10-19T07:45:22;13.50;72.30
46309;DHT22;32037;50.820;6.494;2023-10-19T07:47:50;13.50;71.20
46309;DHT22;32037;50.820;6.494;2023-10-19T07:50:18;13.50;71.40
46309;DHT22;32037;50.820;6.494;2023-10-19T07:52:51;13.50;71.30
46309;DHT22;32037;50.820;6.494;2023-10-19T07:55:22;13.50;70.70
46309;DHT22;32037;50.820;6.494;2023-10-19T07:57:51;13.50;69.80
46309;DHT22;32037;50.820;6.494;2023-10-19T08:00:21;13.50;69.90
46309;DHT22;32037;50.820;6.494;2023-10-19T08:02:51;13.50;70.00
46309;DHT22;32037;50.820;6.494;2023-10-19T08:05:21;13.50;71.20
46309;DHT22;32037;50.820;6.494;2023-10-19T08:07:49;13.50;71.80
46309;DHT22;32037;50.820;6.494;2023-10-19T08:10:19;13.50;71.00
46309;DHT22;32037;50.820;6.494;2023-10-19T08:12:49;13.50;70.70
46309;DHT22;32037;50.820;6.494;2023-10-19T08:15:19;13.50;70.10
46309;DHT22;32037;50.820;6.494;2023-10-19T08:17:49;13.50;70.30
46309;DHT22;32037;50.820;6.494;2023-10-19T08:20:30;13.50;71.20
46309;DHT22;32037;50.820;6.494;2023-10-19T08:23:00;13.50;70.60
46309;DHT22;32037;50.820;6.494;2023-10-19T08:25:30;13.50;70.20
46309;DHT22;32037;50.820;6.494;2023-10-19T08:28:03;13.50;69.40
46309;DHT22;32037;50.820;6.494;2023-10-19T08:30:31;13.60;69.30
46309;DHT22;32037;50.820;6.494;2023-10-19T08:33:01;13.60;69.40
46309;DHT22;32037;50.820;6.494;2023-10-19T08:35:29;13.60;69.60
46309;DHT22;32037;50.820;6.494;2023-10-19T08:37:57;13.60;69.50
46309;DHT22;32037;50.820;6.494;2023-10-19T08:40:26;13.60;69.40
46309;DHT22;32037;50.820;6.494;2023-10-19T08:42:54;13.60;69.30
46309;DHT22;32037;50.820;6.494;2023-10-19T08:45:25;13.60;69.00
46309;DHT22;32037;50.820;6.494;2023-10-19T08:47:54;13.60;68.80
46309;DHT22;32037;50.820;6.494;2023-10-19T08:50:25;13.60;68.90
46309;DHT22;32037;50.820;6.494;2023-10-19T08:52:57;13.70;68.80
46309;DHT22;32037;50.820;6.494;2023-10-19T08:55:26;13.60;68.50
46309;DHT22;32037;50.820;6.494;2023-10-19T08:58:14;13.70;68.70
46309;DHT22;32037;50.820;6.494;2023-10-19T09:00:48;13.70;68.50
46309;DHT22;32037;50.820;6.494;2023-10-19T09:03:19;13.70;68.60
46309;DHT22;32037;50.820;6.494;2023-10-19T09:05:49;13.70;68.60
46309;DHT22;32037;50.820;6.494;2023-10-19T09:08:18;13.70;68.50
46309;DHT22;32037;50.820;6.494;2023-10-19T09:10:50;13.70;68.60
46309;DHT22;32037;50.820;6.494;2023-10-19T09:13:20;13.70;68.50
46309;DHT22;32037;50.820;6.494;2023-10-19T09:15:52;13.70;68.60
46309;DHT22;32037;50.820;6.494;2023-10-19T09:18:24;13.70;68.60
46309;DHT22;32037;50.820;6.494;2023-10-19T09:20:55;13.70;68.80
46309;DHT22;32037;50.820;6.494;2023-10-19T09:23:30;13.70;68.60
46309;DHT22;32037;50.820;6.494;2023-10-19T09:26:00;13.70;68.60
46309;DHT22;32037;50.820;6.494;2023-10-19T09:28:30;13.70;68.70
46309;DHT22;32037;50.820;6.494;2023-10-19T09:31:02;13.70;69.20
46309;DHT22;32037;50.820;6.494;2023-10-19T09:33:33;13.70;68.70
46309;DHT22;32037;50.820;6.494;2023-10-19T09:36:03;13.70;68.70
46309;DHT22;32037;50.820;6.494;2023-10-19T09:38:43;13.80;68.70
46309;DHT22;32037;50.820;6.494;2023-10-19T09:41:12;13.70;68.70
46309;DHT22;32037;50.820;6.494;2023-10-19T09:43:43;13.70;68.50
46309;DHT22;32037;50.820;6.494;2023-10-19T09:46:20;13.70;68.60
46309;DHT22;32037;50.820;6.494;2023-10-19T09:48:49;13.70;68.60
46309;DHT22;32037;50.820;6.494;2023-10-19T09:51:19;13.70;68.70
46309;DHT22;32037;50.820;6.494;2023-10-19T09:53:51;13.80;68.70
46309;DHT22;32037;50.820;6.494;2023-10-19T09:56:24;13.80;69.10
46309;DHT22;32037;50.820;6.494;2023-10-19T09:58:57;13.80;69.10
46309;DHT22;32037;50.820;6.494;2023-10-19T10:02:03;13.80;69.20
46309;DHT22;32037;50.820;6.494;2023-10-19T10:04:33;13.80;69.20
46309;DHT22;32037;50.820;6.494;2023-10-19T10:07:04;13.80;69.10
46309;DHT22;32037;50.820;6.494;2023-10-19T10:09:35;13.80;69.00
46309;DHT22;32037;50.820;6.494;2023-10-19T10:12:17;13.80;69.10
46309;DHT22;32037;50.820;6.494;2023-10-19T10:14:57;13.80;69.40
46309;DHT22;32037;50.820;6.494;2023-10-19T10:17:27;13.80;69.10
46309;DHT22;32037;50.820;6.494;2023-10-19T10:22:40;13.80;69.00
46309;DHT22;32037;50.820;6.494;2023-10-19T10:25:25;13.80;69.00
46309;DHT22;32037;50.820;6.494;2023-10-19T10:27:55;13.80;69.40
46309;DHT22;32037;50.820;6.494;2023-10-19T10:30:24;13.80;69.30
46309;DHT22;32037;50.820;6.494;2023-10-19T10:32:53;13.80;69.20
46309;DHT22;32037;50.820;6.494;2023-10-19T10:35:57;13.80;70.60
46309;DHT22;32037;50.820;6.494;2023-10-19T10:38:33;13.80;69.10
46309;DHT22;32037;50.820;6.494;2023-10-19T10:41:02;13.80;69.50
46309;DHT22;32037;50.820;6.494;2023-10-19T10:43:31;13.80;69.20
46309;DHT22;32037;50.820;6.494;2023-10-19T10:46:04;13.80;69.40
46309;DHT22;32037;50.820;6.494;2023-10-19T10:48:33;13.90;69.40
46309;DHT22;32037;50.820;6.494;2023-10-19T10:51:03;13.80;69.40
46309;DHT22;32037;50.820;6.494;2023-10-19T10:53:31;13.80;69.20
46309;DHT22;32037;50.820;6.494;2023-10-19T10:56:00;13.90;69.20
46309;DHT22;32037;50.820;6.494;2023-10-19T10:58:28;13.80;69.20
46309;DHT22;32037;50.820;6.494;2023-10-19T11:00:57;13.80;69.60
46309;DHT22;32037;50.820;6.494;2023-10-19T11:03:25;13.80;69.30
46309;DHT22;32037;50.820;6.494;2023-10-19T11:06:04;13.80;69.40
46309;DHT22;32037;50.820;6.494;2023-10-19T11:08:35;13.80;69.20
46309;DHT22;32037;50.820;6.494;2023-10-19T11:11:06;13.80;70.00
46309;DHT22;32037;50.820;6.494;2023-10-19T11:13:38;13.80;69.40
46309;DHT22;32037;50.820;6.494;2023-10-19T11:16:07;13.80;69.70
46309;DHT22;32037;50.820;6.494;2023-10-19T11:18:37;13.80;69.40
46309;DHT22;32037;50.820;6.494;2023-10-19T11:21:09;13.80;69.80
46309;DHT22;32037;50.820;6.494;2023-10-19T11:23:39;13.90;69.70
46309;DHT22;32037;50.820;6.494;2023-10-19T11:26:09;13.90;69.60
46309;DHT22;32037;50.820;6.494;2023-10-19T11:28:40;13.90;70.00
46309;DHT22;32037;50.820;6.494;2023-10-19T11:31:15;13.90;70.30
46309;DHT22;32037;50.820;6.494;2023-10-19T11:33:45;13.90;70.00
46309;DHT22;32037;50.820;6.494;2023-10-19T11:36:17;13.90;69.80
46309;DHT22;32037;50.820;6.494;2023-10-19T11:38:48;13.80;69.70
46309;DHT22;32037;50.820;6.494;2023-10-19T11:41:16;13.90;70.40
46309;DHT22;32037;50.820;6.494;2023-10-19T11:43:47;13.90;70.00
46309;DHT22;32037;50.820;6.494;2023-10-19T11:46:16;13.90;71.60
46309;DHT22;32037;50.820;6.494;2023-10-19T11:48:45;13.90;70.20
46309;DHT22;32037;50.820;6.494;2023-10-19T11:51:13;13.90;70.50
46309;DHT22;32037;50.820;6.494;2023-10-19T11:53:44;13.90;70.50
46309;DHT22;32037;50.820;6.494;2023-10-19T11:56:13;13.90;71.70
46309;DHT22;32037;50.820;6.494;2023-10-19T11:58:43;13.90;70.40
46309;DHT22;32037;50.820;6.494;2023-10-19T12:01:14;13.90;70.60
46309;DHT22;32037;50.820;6.494;2023-10-19T12:03:45;13.90;70.30
46309;DHT22;32037;50.820;6.494;2023-10-19T12:06:15;13.90;71.50
46309;DHT22;32037;50.820;6.494;2023-10-19T12:09:03;13.90;70.80
46309;DHT22;32037;50.820;6.494;2023-10-19T12:11:41;13.90;71.10
46309;DHT22;32037;50.820;6.494;2023-10-19T12:14:14;13.90;70.20
46309;DHT22;32037;50.820;6.494;2023-10-19T12:16:42;13.90;70.80
46309;DHT22;32037;50.820;6.494;2023-10-19T12:19:12;13.90;70.60
46309;DHT22;32037;50.820;6.494;2023-10-19T12:21:44;13.90;70.60
46309;DHT22;32037;50.820;6.494;2023-10-19T12:24:14;13.90;70.40
46309;DHT22;32037;50.820;6.494;2023-10-19T12:26:42;13.90;70.50
46309;DHT22;32037;50.820;6.494;2023-10-19T12:29:11;13.90;71.90
46309;DHT22;32037;50.820;6.494;2023-10-19T12:31:44;13.90;71.30
46309;DHT22;32037;50.820;6.494;2023-10-19T12:34:14;14.00;71.00
46309;DHT22;32037;50.820;6.494;2023-10-19T12:36:43;13.90;70.50
46309;DHT22;32037;50.820;6.494;2023-10-19T12:39:15;14.00;70.90
46309;DHT22;32037;50.820;6.494;2023-10-19T12:42:02;13.90;70.50
46309;DHT22;32037;50.820;6.494;2023-10-19T12:44:31;13.90;70.50
46309;DHT22;32037;50.820;6.494;2023-10-19T12:47:06;13.90;71.50
46309;DHT22;32037;50.820;6.494;2023-10-19T12:49:37;14.00;71.30
46309;DHT22;32037;50.820;6.494;2023-10-19T12:52:06;14.00;71.00
46309;DHT22;32037;50.820;6.494;2023-10-19T12:54:36;14.00;70.90
46309;DHT22;32037;50.820;6.494;2023-10-19T12:57:04;14.00;71.30
46309;DHT22;32037;50.820;6.494;2023-10-19T12:59:34;14.00;71.10
46309;DHT22;32037;50.820;6.494;2023-10-19T13:02:04;14.00;70.90
46309;DHT22;32037;50.820;6.494;2023-10-19T13:04:35;14.00;71.00
46309;DHT22;32037;50.820;6.494;2023-10-19T13:07:05;14.00;70.90
46309;DHT22;32037;50.820;6.494;2023-10-19T13:09:35;14.00;71.00
46309;DHT22;32037;50.820;6.494;2023-10-19T13:12:03;14.00;71.70
46309;DHT22;32037;50.820;6.494;2023-10-19T13:14:34;14.00;71.40
46309;DHT22;32037;50.820;6.494;2023-10-19T13:17:02;14.00;71.50
46309;DHT22;32037;50.820;6.494;2023-10-19T13:19:31;14.00;71.40
46309;DHT22;32037;50.820;6.494;2023-10-19T13:21:59;14.00;71.10
46309;DHT22;32037;50.820;6.494;2023-10-19T13:24:32;14.00;71.70
46309;DHT22;32037;50.820;6.494;2023-10-19T13:27:09;14.00;71.70
46309;DHT22;32037;50.820;6.494;2023-10-19T13:29:38;14.00;71.50
46309;DHT22;32037;50.820;6.494;2023-10-19T13:32:09;14.00;71.60
46309;DHT22;32037;50.820;6.494;2023-10-19T13:34:37;14.00;71.50
46309;DHT22;32037;50.820;6.494;2023-10-19T13:37:07;14.00;72.70
46309;DHT22;32037;50.820;6.494;2023-10-19T13:39:35;14.00;72.80
46309;DHT22;32037;50.820;6.494;2023-10-19T13:42:06;14.00;73.00
46309;DHT22;32037;50.820;6.494;2023-10-19T13:44:37;14.00;72.40
46309;DHT22;32037;50.820;6.494;2023-10-19T13:47:06;14.00;72.10
46309;DHT22;32037;50.820;6.494;2023-10-19T13:49:36;14.10;72.90
46309;DHT22;32037;50.820;6.494;2023-10-19T13:52:04;14.00;73.30
46309;DHT22;32037;50.820;6.494;2023-10-19T13:54:32;14.10;72.90
46309;DHT22;32037;50.820;6.494;2023-10-19T13:57:00;14.10;73.00
46309;DHT22;32037;50.820;6.494;2023-10-19T13:59:28;14.10;73.80
46309;DHT22;32037;50.820;6.494;2023-10-19T14:02:01;14.10;74.20
46309;DHT22;32037;50.820;6.494;2023-10-19T14:04:29;14.10;72.70
46309;DHT22;32037;50.820;6.494;2023-10-19T14:06:58;14.10;73.60
46309;DHT22;32037;50.820;6.494;2023-10-19T14:09:27;14.10;73.60
46309;DHT22;32037;50.820;6.494;2023-10-19T14:11:57;14.10;73.70
46309;DHT22;32037;50.820;6.494;2023-10-19T14:14:25;14.10;73.60
46309;DHT22;32037;50.820;6.494;2023-10-19T14:16:53;14.10;73.60
46309;DHT22;32037;50.820;6.494;2023-10-19T14:19:23;14.10;74.10
46309;DHT22;32037;50.820;6.494;2023-10-19T14:21:52;14.10;74.80
46309;DHT22;32037;50.820;6.494;2023-10-19T14:24:20;14.10;73.70
46309;DHT22;32037;50.820;6.494;2023-10-19T14:26:48;14.10;73.40
46309;DHT22;32037;50.820;6.494;2023-10-19T14:29:17;14.10;73.40
46309;DHT22;32037;50.820;6.494;2023-10-19T14:31:45;14.10;73.00
46309;DHT22;32037;50.820;6.494;2023-10-19T14:34:13;14.10;73.00
46309;DHT22;32037;50.820;6.494;2023-10-19T14:36:42;14.10;73.20
46309;DHT22;32037;50.820;6.494;2023-10-19T14:39:11;14.10;73.60
46309;DHT22;32037;50.820;6.494;2023-10-19T14:41:41;14.10;73.20
46309;DHT22;32037;50.820;6.494;2023-10-19T14:44:10;14.10;73.00
46309;DHT22;32037;50.820;6.494;2023-10-19T14:46:38;14.10;73.70
46309;DHT22;32037;50.820;6.494;2023-10-19T14:49:06;14.20;73.80
46309;DHT22;32037;50.820;6.494;2023-10-19T14:51:34;14.10;73.70
46309;DHT22;32037;50.820;6.494;2023-10-19T14:54:04;14.20;73.70
46309;DHT22;32037;50.820;6.494;2023-10-19T14:56:32;14.20;73.50
46309;DHT22;32037;50.820;6.494;2023-10-19T14:59:00;14.20;73.40
46309;DHT22;32037;50.820;6.494;2023-10-19T15:01:31;14.20;74.20
46309;DHT22;32037;50.820;6.494;2023-10-19T15:04:00;14.20;74.10
46309;DHT22;32037;50.820;6.494;2023-10-19T15:06:28;14.20;73.80
46309;DHT22;32037;50.820;6.494;2023-10-19T15:09:01;14.20;74.70
46309;DHT22;32037;50.820;6.494;2023-10-19T15:11:31;14.20;76.10
46309;DHT22;32037;50.820;6.494;2023-10-19T15:14:00;14.20;76.10
46309;DHT22;32037;50.820;6.494;2023-10-19T15:16:30;14.20;74.70
46309;DHT22;32037;50.820;6.494;2023-10-19T15:18:58;14.20;73.60
46309;DHT22;32037;50.820;6.494;2023-10-19T15:21:27;14.20;75.00
46309;DHT22;32037;50.820;6.494;2023-10-19T15:23:56;14.30;74.40
46309;DHT22;32037;50.820;6.494;2023-10-19T15:26:24;14.30;74.80
46309;DHT22;32037;50.820;6.494;2023-10-19T15:28:53;14.30;75.60
46309;DHT22;32037;50.820;6.494;2023-10-19T15:31:22;14.30;74.20
46309;DHT22;32037;50.820;6.494;2023-10-19T15:33:51;14.30;74.00
46309;DHT22;32037;50.820;6.494;2023-10-19T15:36:19;14.30;74.20
46309;DHT22;32037;50.820;6.494;2023-10-19T15:38:48;14.30;74.90
46309;DHT22;32037;50.820;6.494;2023-10-19T15:41:17;14.30;74.00
46309;DHT22;32037;50.820;6.494;2023-10-19T15:43:45;14.30;76.40
46309;DHT22;32037;50.820;6.494;2023-10-19T15:46:15;14.30;73.90
46309;DHT22;32037;50.820;6.494;2023-10-19T15:48:46;14.30;74.70
46309;DHT22;32037;50.820;6.494;2023-10-19T15:51:14;14.30;74.20
46309;DHT22;32037;50.820;6.494;2023-10-19T15:53:42;14.30;73.40
46309;DHT22;32037;50.820;6.494;2023-10-19T15:56:11;14.30;73.20